sensor_id;sensor_type;location;lat;lon;timestamp;temperature;humidity
17452;DHT22;8843;48.838;9.324;2022-08-19T00:01:49;24.00;64.20
17452;DHT22;8843;48.838;9.324;2022-08-19T00:04:19;24.00;64.20
17452;DHT22;8843;48.838;9.324;2022-08-19T00:06:47;24.00;64.20
17452;DHT22;8843;48.838;9.324;2022-08-19T00:09:18;24.00;64.20
17452;DHT22;8843;48.838;9.324;2022-08-19T00:11:46;24.00;64.30
17452;DHT22;8843;48.838;9.324;2022-08-19T00:14:16;24.00;64.30
17452;DHT22;8843;48.838;9.324;2022-08-19T00:16:45;24.00;64.10
17452;DHT22;8843;48.838;9.324;2022-08-19T00:19:13;24.00;64.30
17452;DHT22;8843;48.838;9.324;2022-08-19T00:21:42;24.00;64.30
17452;DHT22;8843;48.838;9.324;2022-08-19T00:24:11;24.00;64.30
17452;DHT22;8843;48.838;9.324;2022-08-19T00:26:40;24.00;64.30
17452;DHT22;8843;48.838;9.324;2022-08-19T00:29:09;24.00;64.20
17452;DHT22;8843;48.838;9.324;2022-08-19T00:31:37;24.00;64.30
17452;DHT22;8843;48.838;9.324;2022-08-19T00:34:04;24.00;64.20
17452;DHT22;8843;48.838;9.324;2022-08-19T00:36:31;23.90;64.40
17452;DHT22;8843;48.838;9.324;2022-08-19T00:39:00;23.90;64.30
17452;DHT22;8843;48.838;9.324;2022-08-19T00:41:28;23.90;64.10
17452;DHT22;8843;48.838;9.324;2022-08-19T00:44:02;23.90;64.20
17452;DHT22;8843;48.838;9.324;2022-08-19T00:46:31;23.90;64.10
17452;DHT22;8843;48.838;9.324;2022-08-19T00:48:59;23.90;64.30
17452;DHT22;8843;48.838;9.324;2022-08-19T00:51:27;23.90;65.10
17452;DHT22;8843;48.838;9.324;2022-08-19T00:53:57;23.90;64.10
17452;DHT22;8843;48.838;9.324;2022-08-19T00:56:25;23.90;64.20
17452;DHT22;8843;48.838;9.324;2022-08-19T00:58:55;23.90;64.20
17452;DHT22;8843;48.838;9.324;2022-08-19T01:01:22;23.90;64.30
17452;DHT22;8843;48.838;9.324;2022-08-19T01:03:49;23.90;64.20
17452;DHT22;8843;48.838;9.324;2022-08-19T01:06:17;23.90;64.20
17452;DHT22;8843;48.838;9.324;2022-08-19T01:08:44;23.90;64.40
17452;DHT22;8843;48.838;9.324;2022-08-19T01:11:12;23.90;64.20
17452;DHT22;8843;48.838;9.324;2022-08-19T01:13:40;23.90;64.40
17452;DHT22;8843;48.838;9.324;2022-08-19T01:16:09;23.90;64.10
17452;DHT22;8843;48.838;9.324;2022-08-19T01:18:39;23.90;64.30
17452;DHT22;8843;48.838;9.324;2022-08-19T01:21:10;23.90;64.30
17452;DHT22;8843;48.838;9.324;2022-08-19T01:23:43;23.90;64.30
17452;DHT22;8843;48.838;9.324;2022-08-19T01:26:11;23.90;64.20
17452;DHT22;8843;48.838;9.324;2022-08-19T01:28:40;23.90;64.40
17452;DHT22;8843;48.838;9.324;2022-08-19T01:31:10;23.90;64.40
17452;DHT22;8843;48.838;9.324;2022-08-19T01:33:37;23.90;64.40
17452;DHT22;8843;48.838;9.324;2022-08-19T01:36:10;23.90;64.30
17452;DHT22;8843;48.838;9.324;2022-08-19T01:38:40;23.90;64.40
17452;DHT22;8843;48.838;9.324;2022-08-19T01:41:10;23.90;64.40
17452;DHT22;8843;48.838;9.324;2022-08-19T01:43:37;23.90;64.20
17452;DHT22;8843;48.838;9.324;2022-08-19T01:46:04;23.80;64.20
17452;DHT22;8843;48.838;9.324;2022-08-19T01:48:36;23.80;64.40
17452;DHT22;8843;48.838;9.324;2022-08-19T01:51:03;23.80;64.40
17452;DHT22;8843;48.838;9.324;2022-08-19T01:53:31;23.80;64.30
17452;DHT22;8843;48.838;9.324;2022-08-19T01:55:58;23.80;64.30
17452;DHT22;8843;48.838;9.324;2022-08-19T01:58:28;23.80;64.30
17452;DHT22;8843;48.838;9.324;2022-08-19T02:00:57;23.80;64.30
17452;DHT22;8843;48.838;9.324;2022-08-19T02:03:24;23.90;64.50
17452;DHT22;8843;48.838;9.324;2022-08-19T02:05:55;23.80;64.40
17452;DHT22;8843;48.838;9.324;2022-08-19T02:08:23;23.80;64.40
17452;DHT22;8843;48.838;9.324;2022-08-19T02:10:49;23.80;64.40
17452;DHT22;8843;48.838;9.324;2022-08-19T02:13:17;23.80;64.40
17452;DHT22;8843;48.838;9.324;2022-08-19T02:15:45;23.80;64.40
17452;DHT22;8843;48.838;9.324;2022-08-19T02:18:13;23.80;65.10
17452;DHT22;8843;48.838;9.324;2022-08-19T02:20:41;23.80;64.20
17452;DHT22;8843;48.838;9.324;2022-08-19T02:23:09;23.80;64.40
17452;DHT22;8843;48.838;9.324;2022-08-19T02:25:36;23.80;64.40
17452;DHT22;8843;48.838;9.324;2022-08-19T02:28:04;23.80;64.40
17452;DHT22;8843;48.838;9.324;2022-08-19T02:30:31;23.80;64.40
17452;DHT22;8843;48.838;9.324;2022-08-19T02:32:59;23.80;64.40
17452;DHT22;8843;48.838;9.324;2022-08-19T02:35:26;23.80;64.40
17452;DHT22;8843;48.838;9.324;2022-08-19T02:37:53;23.80;64.40
17452;DHT22;8843;48.838;9.324;2022-08-19T02:40:37;23.80;64.50
17452;DHT22;8843;48.838;9.324;2022-08-19T02:43:07;23.80;64.50
17452;DHT22;8843;48.838;9.324;2022-08-19T02:45:35;23.80;64.50
17452;DHT22;8843;48.838;9.324;2022-08-19T02:48:04;23.80;64.40
17452;DHT22;8843;48.838;9.324;2022-08-19T02:50:31;23.80;64.40
17452;DHT22;8843;48.838;9.324;2022-08-19T02:52:58;23.80;64.60
17452;DHT22;8843;48.838;9.324;2022-08-19T02:55:25;23.80;64.60
17452;DHT22;8843;48.838;9.324;2022-08-19T02:57:52;23.80;64.40
17452;DHT22;8843;48.838;9.324;2022-08-19T03:00:19;23.80;64.60
17452;DHT22;8843;48.838;9.324;2022-08-19T03:02:46;23.70;64.50
17452;DHT22;8843;48.838;9.324;2022-08-19T03:05:15;23.70;64.60
17452;DHT22;8843;48.838;9.324;2022-08-19T03:07:42;23.70;64.60
17452;DHT22;8843;48.838;9.324;2022-08-19T03:10:09;23.70;64.60
17452;DHT22;8843;48.838;9.324;2022-08-19T03:12:37;23.70;64.50
17452;DHT22;8843;48.838;9.324;2022-08-19T03:15:06;23.70;64.50
17452;DHT22;8843;48.838;9.324;2022-08-19T03:17:33;23.70;64.50
17452;DHT22;8843;48.838;9.324;2022-08-19T03:20:00;23.70;64.50
17452;DHT22;8843;48.838;9.324;2022-08-19T03:22:29;23.70;64.50
17452;DHT22;8843;48.838;9.324;2022-08-19T03:24:56;23.70;64.60
17452;DHT22;8843;48.838;9.324;2022-08-19T03:27:22;23.70;64.60
17452;DHT22;8843;48.838;9.324;2022-08-19T03:29:49;23.70;64.60
17452;DHT22;8843;48.838;9.324;2022-08-19T03:32:17;23.70;64.60
17452;DHT22;8843;48.838;9.324;2022-08-19T03:34:43;23.70;64.60
17452;DHT22;8843;48.838;9.324;2022-08-19T03:37:11;23.70;64.60
17452;DHT22;8843;48.838;9.324;2022-08-19T03:39:40;23.70;64.60
17452;DHT22;8843;48.838;9.324;2022-08-19T03:42:08;23.70;64.60
17452;DHT22;8843;48.838;9.324;2022-08-19T03:44:35;23.70;64.70
17452;DHT22;8843;48.838;9.324;2022-08-19T03:47:03;23.70;64.70
17452;DHT22;8843;48.838;9.324;2022-08-19T03:49:31;23.70;64.70
17452;DHT22;8843;48.838;9.324;2022-08-19T03:52:00;23.70;64.70
17452;DHT22;8843;48.838;9.324;2022-08-19T03:54:27;23.70;64.80
17452;DHT22;8843;48.838;9.324;2022-08-19T03:56:57;23.70;64.80
17452;DHT22;8843;48.838;9.324;2022-08-19T03:59:26;23.70;64.80
17452;DHT22;8843;48.838;9.324;2022-08-19T04:01:54;23.70;64.80
17452;DHT22;8843;48.838;9.324;2022-08-19T04:04:21;23.70;64.80
17452;DHT22;8843;48.838;9.324;2022-08-19T04:06:49;23.70;64.80
17452;DHT22;8843;48.838;9.324;2022-08-19T04:09:17;23.70;65.00
17452;DHT22;8843;48.838;9.324;2022-08-19T04:11:46;23.70;64.80
17452;DHT22;8843;48.838;9.324;2022-08-19T04:14:18;23.70;64.90
17452;DHT22;8843;48.838;9.324;2022-08-19T04:16:45;23.70;64.90
17452;DHT22;8843;48.838;9.324;2022-08-19T04:19:13;23.70;64.80
17452;DHT22;8843;48.838;9.324;2022-08-19T04:21:43;23.60;64.80
17452;DHT22;8843;48.838;9.324;2022-08-19T04:24:11;23.60;64.70
17452;DHT22;8843;48.838;9.324;2022-08-19T04:26:38;23.70;65.70
17452;DHT22;8843;48.838;9.324;2022-08-19T04:29:06;23.70;64.90
17452;DHT22;8843;48.838;9.324;2022-08-19T04:31:35;23.70;64.90
17452;DHT22;8843;48.838;9.324;2022-08-19T04:34:04;23.60;64.90
17452;DHT22;8843;48.838;9.324;2022-08-19T04:36:33;23.60;64.90
17452;DHT22;8843;48.838;9.324;2022-08-19T04:39:04;23.60;64.90
17452;DHT22;8843;48.838;9.324;2022-08-19T04:41:31;23.70;65.00
17452;DHT22;8843;48.838;9.324;2022-08-19T04:44:17;23.70;65.00
17452;DHT22;8843;48.838;9.324;2022-08-19T04:46:46;23.60;64.90
17452;DHT22;8843;48.838;9.324;2022-08-19T04:49:15;23.60;64.90
17452;DHT22;8843;48.838;9.324;2022-08-19T04:51:44;23.60;64.90
17452;DHT22;8843;48.838;9.324;2022-08-19T04:54:13;23.60;64.90
17452;DHT22;8843;48.838;9.324;2022-08-19T04:56:40;23.60;65.00
17452;DHT22;8843;48.838;9.324;2022-08-19T04:59:07;23.60;65.00
17452;DHT22;8843;48.838;9.324;2022-08-19T05:01:36;23.60;65.00
17452;DHT22;8843;48.838;9.324;2022-08-19T05:04:06;23.60;65.10
17452;DHT22;8843;48.838;9.324;2022-08-19T05:06:33;23.60;65.00
17452;DHT22;8843;48.838;9.324;2022-08-19T05:09:01;23.60;65.10
17452;DHT22;8843;48.838;9.324;2022-08-19T05:11:30;23.60;65.00
17452;DHT22;8843;48.838;9.324;2022-08-19T05:13:57;23.60;65.00
17452;DHT22;8843;48.838;9.324;2022-08-19T05:16:25;23.60;65.10
17452;DHT22;8843;48.838;9.324;2022-08-19T05:18:54;23.60;65.10
17452;DHT22;8843;48.838;9.324;2022-08-19T05:21:41;23.60;65.10
17452;DHT22;8843;48.838;9.324;2022-08-19T05:24:26;23.60;65.20
17452;DHT22;8843;48.838;9.324;2022-08-19T05:26:54;23.60;65.10
17452;DHT22;8843;48.838;9.324;2022-08-19T05:29:25;23.60;65.20
17452;DHT22;8843;48.838;9.324;2022-08-19T05:31:52;23.60;65.20
17452;DHT22;8843;48.838;9.324;2022-08-19T05:34:20;23.60;65.20
17452;DHT22;8843;48.838;9.324;2022-08-19T05:36:55;23.60;65.10
17452;DHT22;8843;48.838;9.324;2022-08-19T05:39:24;23.60;65.20
17452;DHT22;8843;48.838;9.324;2022-08-19T05:41:53;23.60;65.10
17452;DHT22;8843;48.838;9.324;2022-08-19T05:44:23;23.60;65.20
17452;DHT22;8843;48.838;9.324;2022-08-19T05:46:50;23.60;65.20
17452;DHT22;8843;48.838;9.324;2022-08-19T05:49:20;23.60;65.30
17452;DHT22;8843;48.838;9.324;2022-08-19T05:51:48;23.60;66.00
17452;DHT22;8843;48.838;9.324;2022-08-19T05:54:17;23.50;65.10
17452;DHT22;8843;48.838;9.324;2022-08-19T05:56:45;23.60;65.30
17452;DHT22;8843;48.838;9.324;2022-08-19T05:59:14;23.30;66.00
17452;DHT22;8843;48.838;9.324;2022-08-19T06:01:44;23.40;65.80
17452;DHT22;8843;48.838;9.324;2022-08-19T06:04:15;23.40;65.60
17452;DHT22;8843;48.838;9.324;2022-08-19T06:06:44;23.50;65.60
17452;DHT22;8843;48.838;9.324;2022-08-19T06:09:12;23.50;65.60
17452;DHT22;8843;48.838;9.324;2022-08-19T06:11:42;23.50;65.60
17452;DHT22;8843;48.838;9.324;2022-08-19T06:14:12;23.50;65.60
17452;DHT22;8843;48.838;9.324;2022-08-19T06:16:41;23.50;65.50
17452;DHT22;8843;48.838;9.324;2022-08-19T06:19:11;23.50;65.50
17452;DHT22;8843;48.838;9.324;2022-08-19T06:21:41;23.50;65.40
17452;DHT22;8843;48.838;9.324;2022-08-19T06:24:10;23.50;65.40
17452;DHT22;8843;48.838;9.324;2022-08-19T06:26:41;23.50;65.40
17452;DHT22;8843;48.838;9.324;2022-08-19T06:29:10;23.50;65.40
17452;DHT22;8843;48.838;9.324;2022-08-19T06:31:40;23.50;65.40
17452;DHT22;8843;48.838;9.324;2022-08-19T06:34:07;23.50;65.40
17452;DHT22;8843;48.838;9.324;2022-08-19T06:36:37;23.50;65.40
17452;DHT22;8843;48.838;9.324;2022-08-19T06:39:07;23.50;65.30
17452;DHT22;8843;48.838;9.324;2022-08-19T06:41:35;23.50;65.40
17452;DHT22;8843;48.838;9.324;2022-08-19T06:44:04;23.50;65.30
17452;DHT22;8843;48.838;9.324;2022-08-19T06:46:31;23.50;65.40
17452;DHT22;8843;48.838;9.324;2022-08-19T06:48:58;23.50;65.40
17452;DHT22;8843;48.838;9.324;2022-08-19T06:51:26;23.50;65.40
17452;DHT22;8843;48.838;9.324;2022-08-19T06:53:54;23.50;65.50
17452;DHT22;8843;48.838;9.324;2022-08-19T06:56:26;23.50;65.40
17452;DHT22;8843;48.838;9.324;2022-08-19T06:58:57;23.50;65.60
17452;DHT22;8843;48.838;9.324;2022-08-19T07:01:25;23.50;65.50
17452;DHT22;8843;48.838;9.324;2022-08-19T07:03:52;23.50;65.60
17452;DHT22;8843;48.838;9.324;2022-08-19T07:06:20;23.50;65.50
17452;DHT22;8843;48.838;9.324;2022-08-19T07:08:47;23.50;65.60
17452;DHT22;8843;48.838;9.324;2022-08-19T07:11:16;23.50;65.50
17452;DHT22;8843;48.838;9.324;2022-08-19T07:13:44;23.50;65.50
17452;DHT22;8843;48.838;9.324;2022-08-19T07:16:15;23.30;66.70
17452;DHT22;8843;48.838;9.324;2022-08-19T07:18:43;23.20;68.60
17452;DHT22;8843;48.838;9.324;2022-08-19T07:21:12;23.10;68.90
17452;DHT22;8843;48.838;9.324;2022-08-19T07:23:40;23.10;68.70
17452;DHT22;8843;48.838;9.324;2022-08-19T07:26:10;23.10;69.30
17452;DHT22;8843;48.838;9.324;2022-08-19T07:28:37;23.10;69.90
17452;DHT22;8843;48.838;9.324;2022-08-19T07:31:05;23.10;69.50
17452;DHT22;8843;48.838;9.324;2022-08-19T07:33:33;23.10;69.60
17452;DHT22;8843;48.838;9.324;2022-08-19T07:36:05;23.20;69.40
17452;DHT22;8843;48.838;9.324;2022-08-19T07:38:34;23.30;68.80
17452;DHT22;8843;48.838;9.324;2022-08-19T07:41:01;23.30;69.00
17452;DHT22;8843;48.838;9.324;2022-08-19T07:43:28;23.30;69.10
17452;DHT22;8843;48.838;9.324;2022-08-19T07:45:55;23.30;69.60
17452;DHT22;8843;48.838;9.324;2022-08-19T07:48:23;23.30;69.30
17452;DHT22;8843;48.838;9.324;2022-08-19T07:50:52;23.30;69.70
17452;DHT22;8843;48.838;9.324;2022-08-19T07:53:21;23.20;70.00
17452;DHT22;8843;48.838;9.324;2022-08-19T07:55:55;23.20;69.30
17452;DHT22;8843;48.838;9.324;2022-08-19T07:58:30;23.20;68.80
17452;DHT22;8843;48.838;9.324;2022-08-19T08:00:58;23.30;70.20
17452;DHT22;8843;48.838;9.324;2022-08-19T08:03:26;23.30;69.70
17452;DHT22;8843;48.838;9.324;2022-08-19T08:06:07;23.30;69.30
17452;DHT22;8843;48.838;9.324;2022-08-19T08:08:53;23.20;70.00
17452;DHT22;8843;48.838;9.324;2022-08-19T08:11:38;23.30;69.80
17452;DHT22;8843;48.838;9.324;2022-08-19T08:14:05;23.20;69.00
17452;DHT22;8843;48.838;9.324;2022-08-19T08:16:35;23.30;68.90
17452;DHT22;8843;48.838;9.324;2022-08-19T08:19:04;23.30;69.00
17452;DHT22;8843;48.838;9.324;2022-08-19T08:21:32;23.30;68.60
17452;DHT22;8843;48.838;9.324;2022-08-19T08:24:00;23.30;68.60
17452;DHT22;8843;48.838;9.324;2022-08-19T08:26:27;23.30;69.90
17452;DHT22;8843;48.838;9.324;2022-08-19T08:28:54;23.30;68.70
17452;DHT22;8843;48.838;9.324;2022-08-19T08:31:21;23.30;68.50
17452;DHT22;8843;48.838;9.324;2022-08-19T08:33:49;23.30;70.20
17452;DHT22;8843;48.838;9.324;2022-08-19T08:36:16;23.30;68.30
17452;DHT22;8843;48.838;9.324;2022-08-19T08:38:44;23.30;68.50
17452;DHT22;8843;48.838;9.324;2022-08-19T08:41:18;23.30;68.80
17452;DHT22;8843;48.838;9.324;2022-08-19T08:43:50;23.30;68.30
17452;DHT22;8843;48.838;9.324;2022-08-19T08:46:20;23.30;69.70
17452;DHT22;8843;48.838;9.324;2022-08-19T08:48:52;23.30;69.40
17452;DHT22;8843;48.838;9.324;2022-08-19T08:51:23;23.30;68.70
17452;DHT22;8843;48.838;9.324;2022-08-19T08:53:54;23.30;69.00
17452;DHT22;8843;48.838;9.324;2022-08-19T08:56:23;23.30;69.60
17452;DHT22;8843;48.838;9.324;2022-08-19T08:58:56;23.30;70.00
17452;DHT22;8843;48.838;9.324;2022-08-19T09:01:23;23.30;68.40
17452;DHT22;8843;48.838;9.324;2022-08-19T09:03:50;23.30;69.70
17452;DHT22;8843;48.838;9.324;2022-08-19T09:06:23;23.30;69.00
17452;DHT22;8843;48.838;9.324;2022-08-19T09:08:58;23.30;68.30
17452;DHT22;8843;48.838;9.324;2022-08-19T09:11:40;23.30;68.50
17452;DHT22;8843;48.838;9.324;2022-08-19T09:14:18;23.30;68.40
17452;DHT22;8843;48.838;9.324;2022-08-19T09:16:47;23.30;68.80
17452;DHT22;8843;48.838;9.324;2022-08-19T09:19:15;23.30;68.20
17452;DHT22;8843;48.838;9.324;2022-08-19T09:21:43;23.30;68.40
17452;DHT22;8843;48.838;9.324;2022-08-19T09:24:10;23.30;68.50
17452;DHT22;8843;48.838;9.324;2022-08-19T09:26:39;23.30;68.50
17452;DHT22;8843;48.838;9.324;2022-08-19T09:29:06;23.30;68.30
17452;DHT22;8843;48.838;9.324;2022-08-19T09:31:34;23.30;68.40
17452;DHT22;8843;48.838;9.324;2022-08-19T09:34:01;23.30;68.30
17452;DHT22;8843;48.838;9.324;2022-08-19T09:36:30;23.30;68.20
17452;DHT22;8843;48.838;9.324;2022-08-19T09:38:59;23.30;68.20
17452;DHT22;8843;48.838;9.324;2022-08-19T09:41:27;23.30;68.10
17452;DHT22;8843;48.838;9.324;2022-08-19T09:43:57;23.30;68.30
17452;DHT22;8843;48.838;9.324;2022-08-19T09:46:25;23.30;68.40
17452;DHT22;8843;48.838;9.324;2022-08-19T09:48:53;23.30;68.20
17452;DHT22;8843;48.838;9.324;2022-08-19T09:51:25;23.30;68.70
17452;DHT22;8843;48.838;9.324;2022-08-19T09:53:58;23.30;68.40
17452;DHT22;8843;48.838;9.324;2022-08-19T09:56:25;23.30;68.30
17452;DHT22;8843;48.838;9.324;2022-08-19T09:58:52;23.30;68.60
17452;DHT22;8843;48.838;9.324;2022-08-19T10:01:22;23.30;68.40
17452;DHT22;8843;48.838;9.324;2022-08-19T10:03:51;23.30;68.30
17452;DHT22;8843;48.838;9.324;2022-08-19T10:06:19;23.30;68.30
17452;DHT22;8843;48.838;9.324;2022-08-19T10:08:47;23.30;68.30
17452;DHT22;8843;48.838;9.324;2022-08-19T10:11:14;23.30;68.30
17452;DHT22;8843;48.838;9.324;2022-08-19T10:13:43;23.30;68.50
17452;DHT22;8843;48.838;9.324;2022-08-19T10:16:12;23.30;68.40
17452;DHT22;8843;48.838;9.324;2022-08-19T10:18:41;23.30;68.30
17452;DHT22;8843;48.838;9.324;2022-08-19T10:21:11;23.30;68.40
17452;DHT22;8843;48.838;9.324;2022-08-19T10:23:41;23.30;68.80
17452;DHT22;8843;48.838;9.324;2022-08-19T10:26:09;23.30;68.90
17452;DHT22;8843;48.838;9.324;2022-08-19T10:28:37;23.30;68.70
17452;DHT22;8843;48.838;9.324;2022-08-19T10:31:05;23.30;68.60
17452;DHT22;8843;48.838;9.324;2022-08-19T10:33:33;23.30;69.00
17452;DHT22;8843;48.838;9.324;2022-08-19T10:36:03;23.30;68.90
17452;DHT22;8843;48.838;9.324;2022-08-19T10:38:30;23.30;69.10
17452;DHT22;8843;48.838;9.324;2022-08-19T10:40:57;23.30;69.00
17452;DHT22;8843;48.838;9.324;2022-08-19T10:43:24;23.30;68.70
17452;DHT22;8843;48.838;9.324;2022-08-19T10:45:54;23.30;69.00
17452;DHT22;8843;48.838;9.324;2022-08-19T10:48:24;23.30;68.70
17452;DHT22;8843;48.838;9.324;2022-08-19T10:50:51;23.30;69.50
17452;DHT22;8843;48.838;9.324;2022-08-19T10:53:37;23.30;71.20
17452;DHT22;8843;48.838;9.324;2022-08-19T10:56:04;23.30;72.00
17452;DHT22;8843;48.838;9.324;2022-08-19T10:58:49;23.30;69.90
17452;DHT22;8843;48.838;9.324;2022-08-19T11:01:16;23.30;70.60
17452;DHT22;8843;48.838;9.324;2022-08-19T11:03:43;23.30;70.20
17452;DHT22;8843;48.838;9.324;2022-08-19T11:06:11;23.30;70.30
17452;DHT22;8843;48.838;9.324;2022-08-19T11:08:40;23.30;70.90
17452;DHT22;8843;48.838;9.324;2022-08-19T11:11:07;23.30;72.80
17452;DHT22;8843;48.838;9.324;2022-08-19T11:13:37;23.30;70.50
17452;DHT22;8843;48.838;9.324;2022-08-19T11:16:07;23.30;70.80
17452;DHT22;8843;48.838;9.324;2022-08-19T11:18:36;23.30;70.10
17452;DHT22;8843;48.838;9.324;2022-08-19T11:21:08;23.30;71.20
17452;DHT22;8843;48.838;9.324;2022-08-19T11:23:35;23.30;71.50
17452;DHT22;8843;48.838;9.324;2022-08-19T11:26:04;23.30;73.40
17452;DHT22;8843;48.838;9.324;2022-08-19T11:28:31;23.20;71.60
17452;DHT22;8843;48.838;9.324;2022-08-19T11:30:58;23.20;72.50
17452;DHT22;8843;48.838;9.324;2022-08-19T11:33:25;23.20;72.20
17452;DHT22;8843;48.838;9.324;2022-08-19T11:35:52;23.20;72.00
17452;DHT22;8843;48.838;9.324;2022-08-19T11:38:19;23.20;72.70
17452;DHT22;8843;48.838;9.324;2022-08-19T11:40:57;23.20;72.00
17452;DHT22;8843;48.838;9.324;2022-08-19T11:43:26;23.20;73.00
17452;DHT22;8843;48.838;9.324;2022-08-19T11:45:54;23.20;73.60
17452;DHT22;8843;48.838;9.324;2022-08-19T11:48:22;23.20;72.00
17452;DHT22;8843;48.838;9.324;2022-08-19T11:50:49;23.30;74.90
17452;DHT22;8843;48.838;9.324;2022-08-19T11:53:17;23.20;73.00
17452;DHT22;8843;48.838;9.324;2022-08-19T11:55:46;23.20;72.80
17452;DHT22;8843;48.838;9.324;2022-08-19T11:58:15;23.30;74.70
17452;DHT22;8843;48.838;9.324;2022-08-19T12:00:44;23.20;73.60
17452;DHT22;8843;48.838;9.324;2022-08-19T12:03:12;23.20;73.00
17452;DHT22;8843;48.838;9.324;2022-08-19T12:05:40;23.20;75.90
17452;DHT22;8843;48.838;9.324;2022-08-19T12:08:07;23.20;73.60
17452;DHT22;8843;48.838;9.324;2022-08-19T12:10:35;23.20;73.10
17452;DHT22;8843;48.838;9.324;2022-08-19T12:13:02;23.20;72.90
17452;DHT22;8843;48.838;9.324;2022-08-19T12:15:29;23.20;73.80
17452;DHT22;8843;48.838;9.324;2022-08-19T12:17:58;23.20;75.30
17452;DHT22;8843;48.838;9.324;2022-08-19T12:20:25;23.20;73.40
17452;DHT22;8843;48.838;9.324;2022-08-19T12:22:52;23.20;74.60
17452;DHT22;8843;48.838;9.324;2022-08-19T12:25:19;23.20;77.10
17452;DHT22;8843;48.838;9.324;2022-08-19T12:27:46;23.20;76.20
17452;DHT22;8843;48.838;9.324;2022-08-19T12:30:15;23.20;74.60
17452;DHT22;8843;48.838;9.324;2022-08-19T12:32:42;23.20;73.40
17452;DHT22;8843;48.838;9.324;2022-08-19T12:35:10;23.20;76.40
17452;DHT22;8843;48.838;9.324;2022-08-19T12:37:38;23.20;76.50
17452;DHT22;8843;48.838;9.324;2022-08-19T12:40:08;23.20;74.20
17452;DHT22;8843;48.838;9.324;2022-08-19T12:42:37;23.20;77.60
17452;DHT22;8843;48.838;9.324;2022-08-19T12:45:08;23.20;75.20
17452;DHT22;8843;48.838;9.324;2022-08-19T12:47:36;23.20;77.60
17452;DHT22;8843;48.838;9.324;2022-08-19T12:50:04;23.20;74.30
17452;DHT22;8843;48.838;9.324;2022-08-19T12:52:36;23.20;75.60
17452;DHT22;8843;48.838;9.324;2022-08-19T12:55:05;23.20;76.10
17452;DHT22;8843;48.838;9.324;2022-08-19T12:57:32;23.20;75.10
17452;DHT22;8843;48.838;9.324;2022-08-19T13:00:04;23.20;75.00
17452;DHT22;8843;48.838;9.324;2022-08-19T13:02:34;23.20;77.30
17452;DHT22;8843;48.838;9.324;2022-08-19T13:05:02;23.20;74.80
17452;DHT22;8843;48.838;9.324;2022-08-19T13:07:29;23.20;78.30
17452;DHT22;8843;48.838;9.324;2022-08-19T13:09:59;23.20;75.50
17452;DHT22;8843;48.838;9.324;2022-08-19T13:12:26;23.20;76.40
17452;DHT22;8843;48.838;9.324;2022-08-19T13:14:53;23.10;74.80
17452;DHT22;8843;48.838;9.324;2022-08-19T13:17:20;23.20;76.00
17452;DHT22;8843;48.838;9.324;2022-08-19T13:19:47;23.20;75.50
17452;DHT22;8843;48.838;9.324;2022-08-19T13:22:14;23.20;74.30
17452;DHT22;8843;48.838;9.324;2022-08-19T13:24:41;23.10;74.60
17452;DHT22;8843;48.838;9.324;2022-08-19T13:27:10;23.10;74.50
17452;DHT22;8843;48.838;9.324;2022-08-19T13:29:36;23.10;75.30
17452;DHT22;8843;48.838;9.324;2022-08-19T13:32:21;23.20;74.30
17452;DHT22;8843;48.838;9.324;2022-08-19T13:35:05;23.10;73.20
17452;DHT22;8843;48.838;9.324;2022-08-19T13:37:32;23.20;72.90
17452;DHT22;8843;48.838;9.324;2022-08-19T13:40:10;23.10;73.00
17452;DHT22;8843;48.838;9.324;2022-08-19T13:42:39;23.10;72.40
17452;DHT22;8843;48.838;9.324;2022-08-19T13:45:07;23.20;73.40
17452;DHT22;8843;48.838;9.324;2022-08-19T13:47:35;23.20;72.70
17452;DHT22;8843;48.838;9.324;2022-08-19T13:50:09;23.10;73.50
17452;DHT22;8843;48.838;9.324;2022-08-19T13:52:37;23.20;74.10
17452;DHT22;8843;48.838;9.324;2022-08-19T13:55:05;23.20;71.90
17452;DHT22;8843;48.838;9.324;2022-08-19T13:57:32;23.20;75.30
17452;DHT22;8843;48.838;9.324;2022-08-19T14:00:02;23.10;73.20
17452;DHT22;8843;48.838;9.324;2022-08-19T14:02:30;23.10;74.00
17452;DHT22;8843;48.838;9.324;2022-08-19T14:04:58;23.10;71.90
17452;DHT22;8843;48.838;9.324;2022-08-19T14:07:25;23.20;72.10
17452;DHT22;8843;48.838;9.324;2022-08-19T14:09:51;23.10;72.80
17452;DHT22;8843;48.838;9.324;2022-08-19T14:12:19;23.10;72.00
17452;DHT22;8843;48.838;9.324;2022-08-19T14:14:47;23.10;71.40
17452;DHT22;8843;48.838;9.324;2022-08-19T14:17:15;23.10;73.00
17452;DHT22;8843;48.838;9.324;2022-08-19T14:19:43;23.10;72.70
17452;DHT22;8843;48.838;9.324;2022-08-19T14:22:10;23.10;72.20
17452;DHT22;8843;48.838;9.324;2022-08-19T14:24:37;23.10;71.60
17452;DHT22;8843;48.838;9.324;2022-08-19T14:27:06;23.10;71.70
17452;DHT22;8843;48.838;9.324;2022-08-19T14:29:33;23.10;71.90
17452;DHT22;8843;48.838;9.324;2022-08-19T14:32:00;23.20;72.90
17452;DHT22;8843;48.838;9.324;2022-08-19T14:34:29;23.10;72.30
17452;DHT22;8843;48.838;9.324;2022-08-19T14:36:57;23.10;71.70
17452;DHT22;8843;48.838;9.324;2022-08-19T14:39:24;23.10;71.80
17452;DHT22;8843;48.838;9.324;2022-08-19T14:41:51;23.10;71.60
17452;DHT22;8843;48.838;9.324;2022-08-19T14:44:18;23.10;71.10
17452;DHT22;8843;48.838;9.324;2022-08-19T14:46:45;23.10;71.10
17452;DHT22;8843;48.838;9.324;2022-08-19T14:49:12;23.10;71.40
17452;DHT22;8843;48.838;9.324;2022-08-19T14:51:40;23.10;72.60
17452;DHT22;8843;48.838;9.324;2022-08-19T14:54:07;23.10;71.20
17452;DHT22;8843;48.838;9.324;2022-08-19T14:56:34;23.10;71.90
17452;DHT22;8843;48.838;9.324;2022-08-19T14:59:01;23.10;71.40
17452;DHT22;8843;48.838;9.324;2022-08-19T15:01:28;23.10;71.60
17452;DHT22;8843;48.838;9.324;2022-08-19T15:03:55;23.10;71.70
17452;DHT22;8843;48.838;9.324;2022-08-19T15:06:23;23.10;72.80
17452;DHT22;8843;48.838;9.324;2022-08-19T15:08:52;23.10;71.90
17452;DHT22;8843;48.838;9.324;2022-08-19T15:11:21;23.10;71.30
17452;DHT22;8843;48.838;9.324;2022-08-19T15:13:49;23.10;71.30
17452;DHT22;8843;48.838;9.324;2022-08-19T15:16:17;23.10;71.50
17452;DHT22;8843;48.838;9.324;2022-08-19T15:18:45;23.00;71.80
17452;DHT22;8843;48.838;9.324;2022-08-19T15:21:13;23.00;72.80
17452;DHT22;8843;48.838;9.324;2022-08-19T15:23:43;23.10;72.70
17452;DHT22;8843;48.838;9.324;2022-08-19T15:26:12;23.00;73.20
17452;DHT22;8843;48.838;9.324;2022-08-19T15:28:38;23.00;73.60
17452;DHT22;8843;48.838;9.324;2022-08-19T15:31:06;23.00;72.90
17452;DHT22;8843;48.838;9.324;2022-08-19T15:33:33;23.00;71.10
17452;DHT22;8843;48.838;9.324;2022-08-19T15:36:02;23.00;74.50
17452;DHT22;8843;48.838;9.324;2022-08-19T15:38:30;23.00;71.90
17452;DHT22;8843;48.838;9.324;2022-08-19T15:40:59;23.00;71.70
17452;DHT22;8843;48.838;9.324;2022-08-19T15:43:48;23.00;71.30
17452;DHT22;8843;48.838;9.324;2022-08-19T15:46:17;23.00;71.70
17452;DHT22;8843;48.838;9.324;2022-08-19T15:48:44;23.00;71.40
17452;DHT22;8843;48.838;9.324;2022-08-19T15:51:11;23.00;71.50
17452;DHT22;8843;48.838;9.324;2022-08-19T15:53:39;23.00;72.10
17452;DHT22;8843;48.838;9.324;2022-08-19T15:56:06;23.00;73.50